Unser Platzwetter:
(um das Bild zu aktualisieren oder bei unvollständig geladenem Bild den Reload-Button des Browsers drücken)

[Quelle: ADDS]
METAR
ETNN 072120Z 31002KT 9999 -SHRA FEW030 BKN050 16/10 Q1017 BLU =
AMD ETNN 071520Z 0715/0723 28010G20KT 9999 NSW SCT040 BKN080 BECMG 0717/0719 27005KT 9999 NSW OVC060 CANCEL 1530 BY ETGL
TAF
AMD ETNN 071520Z 0715/0723 28010G20KT 9999 NSW SCT040 BKN080 BECMG 0717/0719 27005KT 9999 NSW OVC060 CANCEL 1530 BY ETGL =
SR / SS: 03:31 / 19:46 UTC (Vettweiss-Soller 2020-07-08)

Aktuelle Windrichtung in Relation zu unserer Bahn:

 

Aktuelle Dichtehöhe bei uns am Platz: 588 ft.

PPR beachten

50 44 51 N / 06 34 01 E
525 ft
14/32 Gras 360 m
136.090 MHz
02424/901444

Kontakt:

LSG Gertrundenhof e.V.
c/o Rolf Viehs
Scheffensweg 33
52393 Hürtgenwald-Gey
02429/908222
0178/8845333

in Lokalzeit:
05:29
21:48